createdAt,value
2018-03-29T00:02:10.099Z,59.80
2018-03-29T00:04:36.316Z,59.10
2018-03-29T00:07:02.553Z,59.10
2018-03-29T00:09:28.806Z,59.90
2018-03-29T00:11:55.003Z,59.80
2018-03-29T00:14:21.230Z,60.00
2018-03-29T00:16:47.603Z,59.90
2018-03-29T00:19:13.806Z,59.80
2018-03-29T00:21:40.798Z,60.50
2018-03-29T00:24:07.028Z,60.50
2018-03-29T00:26:33.190Z,60.00
2018-03-29T00:28:59.384Z,57.30
2018-03-29T00:31:25.584Z,57.80
2018-03-29T00:33:51.833Z,57.60
2018-03-29T00:36:18.084Z,56.40
2018-03-29T00:38:44.316Z,56.50
2018-03-29T00:41:10.555Z,55.60
2018-03-29T00:43:36.807Z,55.80
2018-03-29T00:46:04.600Z,55.50
2018-03-29T00:48:30.832Z,55.40
2018-03-29T00:50:57.088Z,55.30
2018-03-29T00:53:35.468Z,55.60
2018-03-29T00:56:01.711Z,54.20
2018-03-29T00:58:27.918Z,53.60
2018-03-29T01:00:54.134Z,54.50
2018-03-29T01:03:20.381Z,54.80
2018-03-29T01:05:46.596Z,55.70
2018-03-29T01:08:12.832Z,55.60
2018-03-29T01:10:39.028Z,55.10
2018-03-29T01:13:05.291Z,55.00
2018-03-29T01:15:31.512Z,55.30
2018-03-29T01:17:57.723Z,55.00
2018-03-29T01:20:24.791Z,54.40
2018-03-29T01:22:50.996Z,54.40
2018-03-29T01:25:18.010Z,54.60
2018-03-29T01:27:44.261Z,54.60
2018-03-29T01:30:10.459Z,54.20
2018-03-29T01:32:37.705Z,55.30
2018-03-29T01:35:03.950Z,53.90
2018-03-29T01:37:30.197Z,54.00
2018-03-29T01:39:56.384Z,54.50
2018-03-29T01:42:22.638Z,54.60
2018-03-29T01:44:48.811Z,54.80
2018-03-29T01:47:15.089Z,54.40
2018-03-29T01:49:41.344Z,55.00
2018-03-29T01:52:08.314Z,54.80
2018-03-29T01:54:34.564Z,54.80
2018-03-29T01:57:00.782Z,54.70
2018-03-29T01:59:27.007Z,54.70
2018-03-29T02:01:53.230Z,55.20
2018-03-29T02:04:19.480Z,55.20
2018-03-29T02:06:45.693Z,54.60
2018-03-29T02:09:11.875Z,54.80
2018-03-29T02:11:38.115Z,55.00
2018-03-29T02:14:05.052Z,55.00
2018-03-29T02:16:31.243Z,55.00
2018-03-29T02:18:57.468Z,55.80
2018-03-29T02:21:23.712Z,55.90
2018-03-29T02:23:49.925Z,55.50
2018-03-29T02:26:16.129Z,55.50
2018-03-29T02:28:42.326Z,55.50
2018-03-29T02:31:09.325Z,55.90
2018-03-29T02:33:35.577Z,55.90
2018-03-29T02:36:01.755Z,55.40
2018-03-29T02:38:28.063Z,56.50
2018-03-29T02:40:54.340Z,57.10
2018-03-29T02:43:20.572Z,56.90
2018-03-29T02:45:46.802Z,56.40
2018-03-29T02:48:13.021Z,56.00
2018-03-29T02:50:39.244Z,57.00
2018-03-29T02:53:05.477Z,57.70
2018-03-29T02:55:31.706Z,58.10
2018-03-29T02:57:57.948Z,58.50
2018-03-29T03:00:24.166Z,57.80
2018-03-29T03:02:50.381Z,58.90
2018-03-29T03:05:16.622Z,59.60
2018-03-29T03:07:42.887Z,57.50
2018-03-29T03:10:09.891Z,56.90
2018-03-29T03:12:36.136Z,56.80
2018-03-29T03:15:02.433Z,57.20
2018-03-29T03:17:28.738Z,57.20
2018-03-29T03:19:54.962Z,57.00
2018-03-29T03:22:21.145Z,56.60
2018-03-29T03:24:47.362Z,56.60
2018-03-29T03:27:13.561Z,56.60
2018-03-29T03:29:39.792Z,56.70
2018-03-29T03:32:05.988Z,56.80
2018-03-29T03:34:32.973Z,57.00
2018-03-29T03:36:59.196Z,57.60
2018-03-29T03:39:25.369Z,56.80
2018-03-29T03:41:51.628Z,57.40
2018-03-29T03:44:17.945Z,56.70
2018-03-29T03:46:45.032Z,56.00
2018-03-29T03:49:11.212Z,56.00
2018-03-29T03:51:38.213Z,56.40
2018-03-29T03:54:04.473Z,56.30
2018-03-29T03:56:30.760Z,56.80
2018-03-29T03:58:56.966Z,56.60
2018-03-29T04:01:23.176Z,56.70
2018-03-29T04:03:49.461Z,57.40
2018-03-29T04:06:15.665Z,57.80
2018-03-29T04:08:41.914Z,57.90
2018-03-29T04:11:08.156Z,57.70
2018-03-29T04:13:34.356Z,57.20
2018-03-29T04:16:00.581Z,57.60
2018-03-29T04:18:26.858Z,57.80
2018-03-29T04:20:53.124Z,57.70
2018-03-29T04:23:19.345Z,57.60
2018-03-29T04:25:45.525Z,57.70
2018-03-29T04:28:11.768Z,57.90
2018-03-29T04:30:37.989Z,57.90
2018-03-29T04:33:04.223Z,57.50
2018-03-29T04:35:30.395Z,57.70
2018-03-29T04:37:56.610Z,58.10
2018-03-29T04:40:22.821Z,58.20
2018-03-29T04:42:49.800Z,58.60
2018-03-29T04:45:16.029Z,58.60
2018-03-29T04:47:42.252Z,58.70
2018-03-29T04:50:08.488Z,58.70
2018-03-29T04:52:34.674Z,59.10
2018-03-29T04:55:01.625Z,60.20
2018-03-29T04:57:28.597Z,60.50
2018-03-29T04:59:54.832Z,60.50
2018-03-29T05:02:21.061Z,60.80
2018-03-29T05:04:47.268Z,60.70
2018-03-29T05:07:13.571Z,60.70
2018-03-29T05:09:39.767Z,60.00
2018-03-29T05:12:05.999Z,60.30
2018-03-29T05:14:32.241Z,60.80
2018-03-29T05:16:58.505Z,60.50
2018-03-29T05:19:24.762Z,60.40
2018-03-29T05:21:50.976Z,60.20
2018-03-29T05:24:17.177Z,60.10
2018-03-29T05:26:48.154Z,60.50
2018-03-29T05:29:14.417Z,60.40
2018-03-29T05:31:40.660Z,59.90
2018-03-29T05:34:06.877Z,59.60
2018-03-29T05:36:33.100Z,59.70
2018-03-29T05:38:59.280Z,59.80
2018-03-29T05:41:25.491Z,59.80
2018-03-29T05:43:51.694Z,60.40
2018-03-29T05:46:17.951Z,60.50
2018-03-29T05:48:44.182Z,60.60
2018-03-29T05:51:10.392Z,60.80
2018-03-29T05:53:37.343Z,61.50
2018-03-29T05:56:04.399Z,62.00
2018-03-29T05:58:33.965Z,61.90
2018-03-29T06:01:00.188Z,63.40
2018-03-29T06:03:26.428Z,64.80
2018-03-29T06:05:52.652Z,65.80
2018-03-29T06:08:18.907Z,65.90
2018-03-29T06:10:45.156Z,66.20
2018-03-29T06:13:11.361Z,66.30
2018-03-29T06:15:38.352Z,66.40
2018-03-29T06:18:04.601Z,66.30
2018-03-29T06:20:30.899Z,66.20
2018-03-29T06:22:57.154Z,65.80
2018-03-29T06:25:23.409Z,66.40
2018-03-29T06:27:49.647Z,65.90
2018-03-29T06:30:16.624Z,65.50
2018-03-29T06:32:42.885Z,65.40
2018-03-29T06:35:09.092Z,65.20
2018-03-29T06:37:35.364Z,65.70
2018-03-29T06:40:01.594Z,64.50
2018-03-29T06:42:28.596Z,63.80
2018-03-29T06:44:54.835Z,63.70
2018-03-29T06:47:21.130Z,62.90
2018-03-29T06:49:47.377Z,63.60
2018-03-29T06:52:13.648Z,64.60
2018-03-29T06:54:39.853Z,60.10
2018-03-29T06:57:06.094Z,59.90
2018-03-29T06:59:32.310Z,59.50
2018-03-29T07:01:58.508Z,60.20
2018-03-29T07:04:24.781Z,59.80
2018-03-29T07:06:50.988Z,60.40
2018-03-29T07:09:17.221Z,59.50
2018-03-29T07:11:55.246Z,59.80
2018-03-29T07:14:21.465Z,59.30
2018-03-29T07:16:47.690Z,60.40
2018-03-29T07:19:13.957Z,60.90
2018-03-29T07:21:40.890Z,59.20
2018-03-29T07:24:07.083Z,59.20
2018-03-29T07:26:33.278Z,58.20
2018-03-29T07:28:59.477Z,57.90
2018-03-29T07:31:26.429Z,56.60
2018-03-29T07:33:52.648Z,56.60
2018-03-29T07:36:19.594Z,57.50
2018-03-29T07:38:46.545Z,55.40
2018-03-29T07:41:12.756Z,55.40
2018-03-29T07:43:38.959Z,56.10
2018-03-29T07:46:05.202Z,56.20
2018-03-29T07:48:31.421Z,56.00
2018-03-29T07:50:57.615Z,55.90
2018-03-29T07:53:23.855Z,55.30
2018-03-29T07:55:50.091Z,53.10
2018-03-29T07:58:16.324Z,52.50
2018-03-29T08:00:42.543Z,52.90
2018-03-29T08:03:08.759Z,52.40
2018-03-29T08:05:35.001Z,54.20
2018-03-29T08:08:01.253Z,51.90
2018-03-29T08:13:27.665Z,52.40
2018-03-29T08:15:53.934Z,52.00
2018-03-29T08:18:20.206Z,52.00
2018-03-29T08:20:46.445Z,53.60
2018-03-29T08:23:12.626Z,53.90
2018-03-29T08:25:38.832Z,52.40
2018-03-29T08:28:05.060Z,54.60
2018-03-29T08:30:31.307Z,53.30
2018-03-29T08:32:57.559Z,53.30
2018-03-29T08:35:24.526Z,52.10
2018-03-29T08:37:50.780Z,52.10
2018-03-29T08:40:16.993Z,53.90
2018-03-29T08:42:43.214Z,52.60
2018-03-29T08:45:09.424Z,55.60
2018-03-29T08:47:35.722Z,52.60
2018-03-29T08:50:01.954Z,54.40
2018-03-29T08:52:28.197Z,52.60
2018-03-29T08:54:55.203Z,52.70
2018-03-29T08:57:21.411Z,52.70
2018-03-29T08:59:47.629Z,52.40
2018-03-29T09:02:13.849Z,51.60
2018-03-29T09:04:40.087Z,50.70
2018-03-29T09:07:06.293Z,51.60
2018-03-29T09:09:33.287Z,50.80
2018-03-29T09:11:59.510Z,50.70
2018-03-29T09:14:25.782Z,53.30
2018-03-29T09:16:52.800Z,51.00
2018-03-29T09:19:19.015Z,51.00
2018-03-29T09:21:45.222Z,51.10
2018-03-29T09:24:11.441Z,52.70
2018-03-29T09:26:37.655Z,51.90
2018-03-29T09:29:03.863Z,49.60
2018-03-29T09:31:30.142Z,49.20
2018-03-29T09:33:56.331Z,51.70
2018-03-29T09:36:23.278Z,48.60
2018-03-29T09:38:49.553Z,48.60
2018-03-29T09:41:15.781Z,50.80
2018-03-29T09:43:41.977Z,47.50
2018-03-29T09:46:08.144Z,49.00
2018-03-29T09:48:34.364Z,48.10
2018-03-29T09:51:00.626Z,46.20
2018-03-29T09:53:27.828Z,49.10
2018-03-29T09:55:54.071Z,46.90
2018-03-29T09:58:20.254Z,48.10
2018-03-29T10:00:46.472Z,47.60
2018-03-29T10:03:13.459Z,46.80
2018-03-29T10:05:39.782Z,46.70
2018-03-29T10:08:06.015Z,48.60
2018-03-29T10:10:32.266Z,47.40
2018-03-29T10:12:58.530Z,46.50
2018-03-29T10:15:25.485Z,46.00
2018-03-29T10:17:53.724Z,45.90
2018-03-29T10:20:19.919Z,45.80
2018-03-29T10:22:46.153Z,44.60
2018-03-29T10:25:12.396Z,46.00
2018-03-29T10:27:38.612Z,48.30
2018-03-29T10:30:04.833Z,46.80
2018-03-29T10:32:31.116Z,47.30
2018-03-29T10:34:58.070Z,47.70
2018-03-29T10:37:25.032Z,47.80
2018-03-29T10:39:51.290Z,47.80
2018-03-29T10:42:17.523Z,48.50
2018-03-29T10:44:43.740Z,49.20
2018-03-29T10:47:09.989Z,50.00
2018-03-29T10:49:36.196Z,48.40
2018-03-29T10:52:02.445Z,48.90
2018-03-29T10:54:28.654Z,48.00
2018-03-29T10:56:54.875Z,47.90
2018-03-29T10:59:21.094Z,47.70
2018-03-29T11:01:47.271Z,49.10
2018-03-29T11:04:13.435Z,47.30
2018-03-29T11:06:39.735Z,47.50
2018-03-29T11:38:32.266Z,47.60
2018-03-29T11:40:58.494Z,48.40
2018-03-29T11:43:24.744Z,45.70
2018-03-29T11:45:50.925Z,48.20
2018-03-29T11:48:17.124Z,47.50
2018-03-29T11:50:44.112Z,48.20
2018-03-29T11:53:10.329Z,48.20
2018-03-29T11:55:36.505Z,47.20
2018-03-29T11:58:03.468Z,47.70
2018-03-29T12:00:29.666Z,46.90
2018-03-29T12:02:55.870Z,48.10
2018-03-29T12:05:22.089Z,48.70
2018-03-29T12:10:44.998Z,48.00
2018-03-29T12:13:11.204Z,48.80
2018-03-29T12:15:37.402Z,47.80
2018-03-29T12:18:03.619Z,47.30
2018-03-29T12:20:29.869Z,46.80
2018-03-29T12:22:56.065Z,48.60
2018-03-29T12:25:22.256Z,46.60
2018-03-29T12:27:48.465Z,46.50
2018-03-29T12:30:14.669Z,46.40
2018-03-29T12:32:59.018Z,45.50
2018-03-29T12:35:25.242Z,47.80
2018-03-29T12:37:51.471Z,46.50
2018-03-29T12:40:17.713Z,46.10
2018-03-29T12:42:43.939Z,48.40
2018-03-29T12:45:10.114Z,46.20
2018-03-29T12:47:36.293Z,47.10
2018-03-29T12:50:02.546Z,48.40
2018-03-29T12:52:28.794Z,46.10
2018-03-29T12:55:07.308Z,47.20
2018-03-29T12:57:45.728Z,45.20
2018-03-29T13:00:11.946Z,45.80
2018-03-29T13:02:40.241Z,44.70
2018-03-29T13:05:07.262Z,44.60
2018-03-29T13:07:33.485Z,44.60
2018-03-29T13:09:59.740Z,45.30
2018-03-29T13:12:26.711Z,44.80
2018-03-29T13:14:52.974Z,44.70
2018-03-29T13:17:19.191Z,43.70
2018-03-29T13:19:45.401Z,45.10
2018-03-29T13:22:11.608Z,45.20
2018-03-29T13:24:37.827Z,45.60
2018-03-29T13:27:04.799Z,44.70
2018-03-29T13:29:31.018Z,44.60
2018-03-29T13:31:57.252Z,44.20
2018-03-29T13:34:23.493Z,45.90
2018-03-29T13:36:49.742Z,43.90
2018-03-29T13:39:16.029Z,44.30
2018-03-29T13:41:42.260Z,45.40
2018-03-29T13:44:08.485Z,45.60
2018-03-29T13:46:34.690Z,43.20
2018-03-29T13:49:00.912Z,44.50
2018-03-29T13:51:27.172Z,44.80
2018-03-29T13:53:53.354Z,43.70
2018-03-29T13:56:19.653Z,44.50
2018-03-29T13:58:45.872Z,44.70
2018-03-29T14:01:14.064Z,44.00
2018-03-29T14:03:40.293Z,44.90
2018-03-29T14:06:06.498Z,44.80
2018-03-29T14:08:32.696Z,43.90
2018-03-29T14:10:58.955Z,44.00
2018-03-29T14:13:25.223Z,43.60
2018-03-29T14:15:51.442Z,44.20
2018-03-29T14:18:17.636Z,44.00
2018-03-29T14:20:43.860Z,44.50
2018-03-29T14:23:10.078Z,45.40
2018-03-29T14:25:36.278Z,44.20
2018-03-29T14:28:02.463Z,45.80
2018-03-29T14:30:28.669Z,45.80
2018-03-29T14:32:54.839Z,44.30
2018-03-29T14:35:21.051Z,45.70
2018-03-29T14:37:54.140Z,43.80
2018-03-29T14:40:20.353Z,43.90
2018-03-29T14:42:46.632Z,44.40
2018-03-29T14:45:13.626Z,44.60
2018-03-29T14:47:39.872Z,44.60
2018-03-29T14:50:06.070Z,45.10
2018-03-29T14:52:32.313Z,44.30
2018-03-29T14:54:58.580Z,45.30
2018-03-29T14:57:25.544Z,44.70
2018-03-29T14:59:52.527Z,46.30
2018-03-29T15:02:18.757Z,46.20
2018-03-29T15:04:44.995Z,45.20
2018-03-29T15:07:11.234Z,44.90
2018-03-29T15:09:37.481Z,45.70
2018-03-29T15:12:03.693Z,45.40
2018-03-29T15:14:29.935Z,46.00
2018-03-29T15:16:56.157Z,45.70
2018-03-29T15:19:22.373Z,45.70
2018-03-29T15:21:48.652Z,45.90
2018-03-29T15:24:14.925Z,46.40
2018-03-29T15:26:42.189Z,46.40
2018-03-29T15:29:08.407Z,46.10
2018-03-29T15:31:34.663Z,46.20
2018-03-29T15:34:00.846Z,45.60
2018-03-29T15:36:27.098Z,46.50
2018-03-29T15:38:53.320Z,46.70
2018-03-29T15:41:19.532Z,44.80
2018-03-29T15:43:45.765Z,46.50
2018-03-29T15:46:11.968Z,44.90
2018-03-29T15:48:38.201Z,45.50
2018-03-29T15:51:04.450Z,45.40
2018-03-29T15:53:30.727Z,46.40
2018-03-29T15:55:57.681Z,46.00
2018-03-29T15:58:28.789Z,45.90
2018-03-29T16:00:55.083Z,45.20
2018-03-29T16:03:21.288Z,44.70
2018-03-29T16:05:48.226Z,44.70
2018-03-29T16:08:15.234Z,44.60
2018-03-29T16:10:41.470Z,44.60
2018-03-29T16:13:07.753Z,44.80
2018-03-29T16:15:33.982Z,45.20
2018-03-29T16:18:00.188Z,45.20
2018-03-29T16:20:27.250Z,43.70
2018-03-29T16:22:53.500Z,43.50
2018-03-29T16:25:19.720Z,46.50
2018-03-29T16:27:45.957Z,45.60
2018-03-29T16:30:12.134Z,45.80
2018-03-29T16:32:39.072Z,46.10
2018-03-29T16:35:05.409Z,45.50
2018-03-29T16:37:31.666Z,44.90
2018-03-29T16:39:57.868Z,45.50
2018-03-29T16:42:24.868Z,46.20
2018-03-29T16:44:51.118Z,46.20
2018-03-29T16:47:17.343Z,45.40
2018-03-29T16:49:43.576Z,44.50
2018-03-29T16:52:09.767Z,44.50
2018-03-29T16:54:35.990Z,44.10
2018-03-29T16:57:02.235Z,44.30
2018-03-29T16:59:28.465Z,44.80
2018-03-29T17:01:54.698Z,45.40
2018-03-29T17:04:20.902Z,44.30
2018-03-29T17:06:47.149Z,44.60
2018-03-29T17:09:17.129Z,44.70
2018-03-29T17:11:43.329Z,44.70
2018-03-29T17:14:09.549Z,45.70
2018-03-29T17:16:35.730Z,46.00
2018-03-29T17:19:01.987Z,46.20
2018-03-29T17:21:28.190Z,46.50
2018-03-29T17:23:54.420Z,46.10
2018-03-29T17:26:20.640Z,46.90
2018-03-29T17:28:46.869Z,46.60
2018-03-29T17:31:13.181Z,47.60
2018-03-29T17:33:39.373Z,47.40
2018-03-29T17:36:05.629Z,47.60
2018-03-29T17:38:31.784Z,48.10
2018-03-29T17:40:58.031Z,47.30
2018-03-29T17:43:24.253Z,47.90
2018-03-29T17:45:50.552Z,47.90
2018-03-29T17:48:16.805Z,48.50
2018-03-29T17:50:43.054Z,48.20
2018-03-29T17:53:09.289Z,48.60
2018-03-29T17:55:35.530Z,48.80
2018-03-29T17:58:01.773Z,49.10
2018-03-29T18:00:47.211Z,49.40
2018-03-29T18:03:13.452Z,49.40
2018-03-29T18:05:39.681Z,49.80
2018-03-29T18:08:05.906Z,50.50
2018-03-29T18:10:32.150Z,51.10
2018-03-29T18:12:58.385Z,51.80
2018-03-29T18:15:24.560Z,52.30
2018-03-29T18:17:50.811Z,52.60
2018-03-29T18:20:17.016Z,52.70
2018-03-29T18:22:43.216Z,52.60
2018-03-29T18:25:09.460Z,53.40
2018-03-29T18:27:35.661Z,52.90
2018-03-29T18:30:02.629Z,53.70
2018-03-29T18:32:28.835Z,53.60
2018-03-29T18:34:55.054Z,54.20
2018-03-29T18:37:22.062Z,55.00
2018-03-29T18:39:48.315Z,54.90
2018-03-29T18:42:15.277Z,55.40
2018-03-29T18:44:42.213Z,56.20
2018-03-29T18:47:09.213Z,56.10
2018-03-29T18:49:35.430Z,56.00
2018-03-29T18:52:01.700Z,55.80
2018-03-29T18:54:27.921Z,56.00
2018-03-29T18:56:54.175Z,56.00
2018-03-29T18:59:21.253Z,56.30
2018-03-29T19:01:47.476Z,56.20
2018-03-29T19:04:13.681Z,56.80
2018-03-29T19:06:40.760Z,57.40
2018-03-29T19:09:14.048Z,57.20
2018-03-29T19:11:40.244Z,57.40
2018-03-29T19:14:07.195Z,57.70
2018-03-29T19:16:34.168Z,57.80
2018-03-29T19:19:01.455Z,57.80
2018-03-29T19:21:27.712Z,58.10
2018-03-29T19:23:54.662Z,57.80
2018-03-29T19:32:16.684Z,57.40
2018-03-29T19:34:42.994Z,57.50
2018-03-29T19:37:09.269Z,57.50
2018-03-29T19:39:35.541Z,57.60
2018-03-29T19:42:01.819Z,57.80
2018-03-29T19:44:28.787Z,58.10
2018-03-29T19:46:55.069Z,58.00
2018-03-29T19:49:22.383Z,58.20
2018-03-29T19:51:48.809Z,58.40
2018-03-29T19:54:15.103Z,58.50
2018-03-29T19:56:42.131Z,59.00
2018-03-29T19:59:08.458Z,59.00
2018-03-29T20:01:35.520Z,59.00
2018-03-29T20:04:02.560Z,59.50
2018-03-29T20:06:29.833Z,59.50
2018-03-29T20:08:56.072Z,59.80
2018-03-29T20:11:22.370Z,59.90
2018-03-29T20:13:49.365Z,60.00
2018-03-29T20:16:15.624Z,59.40
2018-03-29T20:18:48.332Z,59.60
2018-03-29T20:21:15.360Z,59.40
2018-03-29T20:23:41.740Z,59.30
2018-03-29T20:26:08.077Z,59.50
2018-03-29T20:28:34.347Z,59.90
2018-03-29T20:31:00.636Z,60.40
2018-03-29T20:33:26.908Z,60.30
2018-03-29T20:35:53.207Z,60.70
2018-03-29T20:38:19.487Z,61.10
2018-03-29T20:40:46.496Z,62.10
2018-03-29T20:43:12.812Z,62.10
2018-03-29T20:45:49.740Z,62.40
2018-03-29T20:48:16.780Z,63.60
2018-03-29T20:50:43.044Z,63.50
2018-03-29T20:53:13.363Z,63.40
2018-03-29T20:55:39.816Z,62.90
2018-03-29T20:58:06.092Z,63.00
2018-03-29T21:00:32.336Z,63.20
2018-03-29T21:02:59.419Z,62.90
2018-03-29T21:05:33.783Z,62.90
2018-03-29T21:08:00.100Z,62.70
2018-03-29T21:10:26.472Z,61.70
2018-03-29T21:12:52.704Z,61.90
2018-03-29T21:15:18.984Z,61.50
2018-03-29T21:17:45.252Z,61.20
2018-03-29T21:20:12.257Z,61.70
2018-03-29T21:22:38.527Z,61.60
2018-03-29T21:25:10.368Z,61.70
2018-03-29T21:27:36.600Z,62.40
2018-03-29T21:30:03.603Z,61.70
2018-03-29T21:32:29.937Z,61.40
2018-03-29T21:34:56.204Z,62.90
2018-03-29T21:37:22.518Z,63.90
2018-03-29T21:39:48.911Z,65.20
2018-03-29T21:42:15.116Z,65.10
2018-03-29T21:44:41.367Z,64.70
2018-03-29T21:47:07.639Z,64.30
2018-03-29T21:49:33.979Z,63.70
2018-03-29T21:52:00.263Z,63.70
2018-03-29T21:54:26.548Z,63.90
2018-03-29T21:56:53.572Z,63.80
2018-03-29T21:59:21.901Z,64.30
2018-03-29T22:01:48.171Z,63.90
2018-03-29T22:04:14.428Z,64.00
2018-03-29T22:06:41.495Z,65.10
2018-03-29T22:09:07.903Z,65.10
2018-03-29T22:11:34.965Z,66.50
2018-03-29T22:14:01.248Z,66.40
2018-03-29T22:16:27.523Z,66.30
2018-03-29T22:18:53.804Z,65.40
2018-03-29T22:21:20.019Z,65.50
2018-03-29T22:26:45.627Z,66.40
2018-03-29T22:29:12.125Z,65.40
2018-03-29T22:31:38.368Z,64.90
2018-03-29T22:34:04.751Z,64.40
2018-03-29T22:36:30.998Z,64.90
2018-03-29T22:38:58.014Z,64.60
2018-03-29T22:41:24.343Z,64.50
2018-03-29T22:43:50.625Z,64.50
2018-03-29T22:46:16.941Z,63.70
2018-03-29T22:48:43.965Z,62.90
2018-03-29T22:51:10.221Z,62.80
2018-03-29T22:53:36.467Z,62.50
2018-03-29T22:56:02.745Z,62.50
2018-03-29T22:58:29.032Z,62.30
2018-03-29T23:00:55.356Z,62.40
2018-03-29T23:03:21.613Z,62.30
2018-03-29T23:05:47.892Z,61.80
2018-03-29T23:08:14.145Z,61.80
2018-03-29T23:10:40.404Z,61.60
2018-03-29T23:13:06.713Z,61.20
2018-03-29T23:15:32.950Z,61.20
2018-03-29T23:17:59.249Z,61.00
2018-03-29T23:20:25.559Z,60.90
2018-03-29T23:22:51.875Z,60.70
2018-03-29T23:25:18.909Z,60.60
2018-03-29T23:27:45.160Z,60.50
2018-03-29T23:30:12.149Z,60.40
2018-03-29T23:32:38.439Z,60.30
2018-03-29T23:35:04.753Z,60.30
2018-03-29T23:37:31.048Z,60.50
2018-03-29T23:39:57.338Z,60.60
2018-03-29T23:42:23.629Z,60.60
2018-03-29T23:44:49.880Z,60.30
2018-03-29T23:47:16.934Z,59.90
2018-03-29T23:49:43.955Z,59.90
2018-03-29T23:52:10.226Z,59.90
2018-03-29T23:54:36.525Z,59.90
2018-03-29T23:57:05.473Z,60.30
2018-03-29T23:59:31.745Z,59.90
